Terminal Aerodrome Forecast
Issued by NWS

Home | Current Version | Previous Version | Text Only | Print | Product List | Glossary On
Versions: 1 2 3 4 5 6 7 8 9 10 11 12 13 14 15 16 17 18
000
FTUS43 KLSX 231700
TAFSUS
TAF
KSUS 231727Z 2318/2418 22006KT P6SM BKN120
     FM232200 27004KT P6SM BKN080
     FM240300 33006KT P6SM BKN030
     FM240600 33006KT 5SM -RA BKN015
     FM241200 32010KT 4SM -RASN SCT008 OVC015
     FM241500 29010KT 3SM -SN OVC008
      TEMPO 2416/2418 1SM -SN=

USA.gov is the U.S. government's official web portal to all federal, state and local government web resources and services.